Time;durP1;ratioP1;P1;durP2;ratioP2;P2;SDS_P1;SDS_P2;PMS_P1;PMS_P2;Temp;Humidity;BMP_temperature;BMP_pressure;BME280_temperature;BME280_humidity;BME280_pressure;Samples;Min_cycle;Max_cycle;Signal;HPM_P1;HPM_P2
2022/11/06 00:04:22;;;;;;;3.73;2.73;;;;;;;;;;10416221;28;20041;-49
2022/11/06 00:09:22;;;;;;;7.25;3.17;;;;;;;;;;10432883;28;20819;-50
2022/11/06 00:14:22;;;;;;;4.05;2.70;;;;;;;;;;10423287;28;20025;-50
2022/11/06 00:19:23;;;;;;;4.17;2.90;;;;;;;;;;10439767;28;20219;-49
2022/11/06 00:24:23;;;;;;;3.67;2.70;;;;;;;;;;10415680;28;20108;-49
2022/11/06 00:29:23;;;;;;;3.25;2.72;;;;;;;;;;10437122;28;20110;-50
2022/11/06 00:34:23;;;;;;;5.85;2.95;;;;;;;;;;10441420;28;20039;-53
2022/11/06 00:39:24;;;;;;;6.15;2.70;;;;;;;;;;10440887;28;20125;-49
2022/11/06 00:44:24;;;;;;;4.63;2.90;;;;;;;;;;10433214;28;20086;-49
2022/11/06 00:49:26;;;;;;;7.85;2.85;;;;;;;;;;10421902;28;20036;-50
2022/11/06 00:54:26;;;;;;;5.50;2.90;;;;;;;;;;10418533;28;20113;-49
2022/11/06 00:59:26;;;;;;;4.07;2.90;;;;;;;;;;10417582;28;20029;-50
2022/11/06 01:04:27;;;;;;;9.00;3.10;;;;;;;;;;10405452;28;20080;-55
2022/11/06 01:09:27;;;;;;;3.88;2.97;;;;;;;;;;10387471;28;20497;-50
2022/11/06 01:14:28;;;;;;;3.95;2.63;;;;;;;;;;10400267;28;20037;-49
2022/11/06 01:19:28;;;;;;;2.58;2.33;;;;;;;;;;10410528;28;20026;-49
2022/11/06 01:24:28;;;;;;;5.88;2.95;;;;;;;;;;10420603;28;20025;-49
2022/11/06 01:29:29;;;;;;;4.90;3.17;;;;;;;;;;10415136;28;20061;-49
2022/11/06 01:34:29;;;;;;;6.13;2.90;;;;;;;;;;10420347;28;21008;-50
2022/11/06 01:39:29;;;;;;;4.27;2.83;;;;;;;;;;10416350;28;20025;-50
2022/11/06 01:44:42;;;;;;;8.20;3.03;;;;;;;;;;10414314;28;20092;-52
2022/11/06 01:49:43;;;;;;;3.72;2.78;;;;;;;;;;10410876;28;20033;-50
2022/11/06 01:54:45;;;;;;;3.50;2.55;;;;;;;;;;10409993;28;20496;-52
2022/11/06 01:59:45;;;;;;;3.10;2.80;;;;;;;;;;10413021;28;20025;-50
2022/11/06 02:04:48;;;;;;;4.40;2.73;;;;;;;;;;10416846;28;20024;-49
2022/11/06 02:09:48;;;;;;;4.57;3.03;;;;;;;;;;10415721;28;20087;-51
2022/11/06 02:14:48;;;;;;;6.22;3.28;;;;;;;;;;10425533;28;20396;-51
2022/11/06 02:19:49;;;;;;;4.40;2.92;;;;;;;;;;10444702;28;20388;-49
2022/11/06 02:25:07;;;;;;;3.80;2.93;;;;;;;;;;10437459;28;20121;-49
2022/11/06 02:30:09;;;;;;;3.08;2.50;;;;;;;;;;10448625;28;20413;-50
2022/11/06 02:35:17;;;;;;;4.30;2.60;;;;;;;;;;10432116;28;20112;-49
2022/11/06 02:40:18;;;;;;;3.13;2.63;;;;;;;;;;10447612;28;20031;-50
2022/11/06 02:45:19;;;;;;;4.93;2.90;;;;;;;;;;10410399;28;20041;-49
2022/11/06 02:50:29;;;;;;;3.50;2.42;;;;;;;;;;10431472;28;20040;-50
2022/11/06 02:55:32;;;;;;;3.22;2.75;;;;;;;;;;10405487;28;20170;-52
2022/11/06 03:00:33;;;;;;;3.47;2.40;;;;;;;;;;10434826;28;20084;-50
2022/11/06 03:05:35;;;;;;;4.97;2.65;;;;;;;;;;10447180;28;20124;-49
2022/11/06 03:10:49;;;;;;;3.15;2.60;;;;;;;;;;10419961;28;20036;-51
2022/11/06 03:16:04;;;;;;;3.83;2.75;;;;;;;;;;10432857;28;20151;-51
2022/11/06 03:21:15;;;;;;;3.45;2.85;;;;;;;;;;10440803;28;20041;-50
2022/11/06 03:26:39;;;;;;;3.78;2.97;;;;;;;;;;10432030;28;20041;-54
2022/11/06 03:31:46;;;;;;;4.80;2.70;;;;;;;;;;10391429;22;20058;-55
2022/11/06 03:36:49;;;;;;;4.10;2.83;;;;;;;;;;10366401;28;20450;-54
2022/11/06 03:41:54;;;;;;;3.28;2.65;;;;;;;;;;10365152;28;20395;-52
2022/11/06 03:46:59;;;;;;;4.30;2.80;;;;;;;;;;10366209;28;20066;-54
2022/11/06 03:52:02;;;;;;;3.88;3.05;;;;;;;;;;10365736;28;20486;-53
2022/11/06 03:57:06;;;;;;;3.00;2.45;;;;;;;;;;10365753;28;20026;-55
2022/11/06 04:02:07;;;;;;;3.95;2.83;;;;;;;;;;10355158;28;20073;-53
2022/11/06 04:07:10;;;;;;;3.35;2.55;;;;;;;;;;10362756;28;20525;-53
2022/11/06 04:17:32;;;;;;;3.47;2.60;;;;;;;;;;10363679;28;20108;-57
2022/11/06 04:22:54;;;;;;;4.43;2.60;;;;;;;;;;10368874;28;20080;-53
2022/11/06 04:28:06;;;;;;;3.28;2.65;;;;;;;;;;10372201;28;20022;-57
2022/11/06 04:33:13;;;;;;;2.72;2.40;;;;;;;;;;10353915;28;20481;-56
2022/11/06 04:38:20;;;;;;;4.88;2.63;;;;;;;;;;10373574;28;20022;-55
2022/11/06 04:43:35;;;;;;;3.53;2.80;;;;;;;;;;10359667;28;20095;-55
2022/11/06 04:48:37;;;;;;;4.25;2.97;;;;;;;;;;10360322;28;20026;-56
2022/11/06 04:53:38;;;;;;;4.20;2.50;;;;;;;;;;10372032;28;20030;-56
2022/11/06 04:58:38;;;;;;;3.60;2.60;;;;;;;;;;10359049;28;20025;-59
2022/11/06 05:03:39;;;;;;;3.67;2.70;;;;;;;;;;10359523;28;20034;-57
2022/11/06 05:08:39;;;;;;;2.60;2.40;;;;;;;;;;10369958;28;20034;-56
2022/11/06 05:13:39;;;;;;;4.20;2.77;;;;;;;;;;10370102;28;20038;-57
2022/11/06 05:18:39;;;;;;;3.00;2.53;;;;;;;;;;10370378;28;20071;-57
2022/11/06 05:23:40;;;;;;;3.63;2.28;;;;;;;;;;10370704;28;20110;-56
2022/11/06 05:28:40;;;;;;;2.58;2.38;;;;;;;;;;10370780;28;20075;-57
2022/11/06 05:33:40;;;;;;;3.00;2.42;;;;;;;;;;10370307;28;20026;-58
2022/11/06 05:38:41;;;;;;;2.70;2.45;;;;;;;;;;10370937;28;20541;-56
2022/11/06 05:43:41;;;;;;;6.97;2.50;;;;;;;;;;10370275;28;20393;-57
2022/11/06 05:48:41;;;;;;;7.10;2.83;;;;;;;;;;10356424;28;20393;-58
2022/11/06 05:53:41;;;;;;;2.40;2.20;;;;;;;;;;10369037;28;20100;-56
2022/11/06 05:58:42;;;;;;;3.58;2.70;;;;;;;;;;10356987;28;20053;-57
2022/11/06 06:03:42;;;;;;;3.22;2.53;;;;;;;;;;10368812;28;20022;-57
2022/11/06 06:08:42;;;;;;;4.05;2.65;;;;;;;;;;10368832;28;20034;-57
2022/11/06 06:13:43;;;;;;;2.83;2.40;;;;;;;;;;10368795;28;20560;-56
2022/11/06 06:18:43;;;;;;;2.93;2.23;;;;;;;;;;10364924;28;20129;-57
2022/11/06 06:23:43;;;;;;;3.65;2.40;;;;;;;;;;10366184;28;20041;-58
2022/11/06 06:28:46;;;;;;;3.23;2.57;;;;;;;;;;10367183;28;20033;-57
2022/11/06 06:33:46;;;;;;;3.38;2.38;;;;;;;;;;10367592;28;20017;-57
2022/11/06 06:38:47;;;;;;;2.80;2.30;;;;;;;;;;10367751;28;20429;-57
2022/11/06 06:43:48;;;;;;;2.65;2.17;;;;;;;;;;10366912;28;20088;-56
2022/11/06 06:48:48;;;;;;;3.38;1.90;;;;;;;;;;10365930;28;20972;-57
2022/11/06 06:53:48;;;;;;;5.07;2.00;;;;;;;;;;10366706;28;20026;-57
2022/11/06 06:58:52;;;;;;;6.65;2.38;;;;;;;;;;10362675;28;20494;-56
2022/11/06 07:03:52;;;;;;;3.53;2.03;;;;;;;;;;10354723;28;20064;-58
2022/11/06 07:08:55;;;;;;;2.25;2.03;;;;;;;;;;10369856;28;20037;-57
2022/11/06 07:13:55;;;;;;;5.43;2.15;;;;;;;;;;10366057;28;20029;-56
2022/11/06 07:18:56;;;;;;;2.37;1.80;;;;;;;;;;10371113;28;20044;-57
2022/11/06 07:23:56;;;;;;;7.43;2.00;;;;;;;;;;10371100;28;20029;-54
2022/11/06 07:28:56;;;;;;;7.38;2.20;;;;;;;;;;10369583;28;20050;-56
2022/11/06 07:33:56;;;;;;;5.50;2.22;;;;;;;;;;10358480;28;20041;-56
2022/11/06 07:38:57;;;;;;;9.90;2.35;;;;;;;;;;10363131;28;20038;-57
2022/11/06 07:43:57;;;;;;;8.07;2.28;;;;;;;;;;10363936;28;20034;-57
2022/11/06 07:48:58;;;;;;;6.78;1.92;;;;;;;;;;10361353;28;20497;-56
2022/11/06 07:53:58;;;;;;;11.45;2.28;;;;;;;;;;10364225;28;20365;-56
2022/11/06 07:58:58;;;;;;;7.78;2.20;;;;;;;;;;10371253;28;20034;-54
2022/11/06 08:03:58;;;;;;;4.68;2.35;;;;;;;;;;10374044;28;20040;-56
2022/11/06 08:08:59;;;;;;;5.72;2.13;;;;;;;;;;10371862;28;20033;-56
2022/11/06 08:13:59;;;;;;;4.97;1.90;;;;;;;;;;10373186;28;20026;-56
2022/11/06 08:19:00;;;;;;;6.97;1.90;;;;;;;;;;10373492;28;20037;-56
2022/11/06 08:24:00;;;;;;;4.03;2.13;;;;;;;;;;10373745;28;20029;-61
2022/11/06 08:29:00;;;;;;;3.72;1.73;;;;;;;;;;10372832;28;20081;-55
2022/11/06 08:34:01;;;;;;;2.88;1.80;;;;;;;;;;10373180;28;20026;-54
2022/11/06 08:39:01;;;;;;;3.05;1.95;;;;;;;;;;10373307;28;20105;-56
2022/11/06 08:44:01;;;;;;;4.30;1.63;;;;;;;;;;10372758;28;20034;-55
2022/11/06 08:49:01;;;;;;;3.15;1.55;;;;;;;;;;10372500;28;20042;-56
2022/11/06 08:54:02;;;;;;;3.10;1.90;;;;;;;;;;10372626;28;20060;-56
2022/11/06 08:59:02;;;;;;;1.70;1.55;;;;;;;;;;10370824;28;20030;-54
2022/11/06 09:04:03;;;;;;;3.70;1.98;;;;;;;;;;10372343;28;20041;-56
2022/11/06 09:09:03;;;;;;;5.00;1.60;;;;;;;;;;10369531;28;20095;-55
2022/11/06 09:14:03;;;;;;;2.05;1.83;;;;;;;;;;10370642;28;20034;-56
2022/11/06 09:19:03;;;;;;;1.93;1.73;;;;;;;;;;10370543;28;20034;-57
2022/11/06 09:24:04;;;;;;;1.88;1.33;;;;;;;;;;10371780;28;20359;-53
2022/11/06 09:29:04;;;;;;;3.50;1.33;;;;;;;;;;10369583;28;20042;-56
2022/11/06 09:34:04;;;;;;;2.55;1.52;;;;;;;;;;10370106;28;20932;-57
2022/11/06 09:39:05;;;;;;;3.30;1.70;;;;;;;;;;10370679;28;20474;-55
2022/11/06 09:44:05;;;;;;;1.93;1.40;;;;;;;;;;10370259;28;20038;-57
2022/11/06 09:49:14;;;;;;;2.30;1.38;;;;;;;;;;10370247;28;20030;-56
2022/11/06 09:54:17;;;;;;;4.32;1.90;;;;;;;;;;10370349;28;20255;-55
2022/11/06 09:59:19;;;;;;;2.85;1.70;;;;;;;;;;10368781;28;20092;-56
2022/11/06 10:04:30;;;;;;;1.98;1.27;;;;;;;;;;10368692;28;20409;-54
2022/11/06 10:09:30;;;;;;;3.97;1.80;;;;;;;;;;10363827;28;20442;-56
2022/11/06 10:14:37;;;;;;;1.58;1.40;;;;;;;;;;10368628;28;20112;-57
2022/11/06 10:19:38;;;;;;;2.10;1.42;;;;;;;;;;10369107;28;20362;-56
2022/11/06 10:24:44;;;;;;;5.45;1.55;;;;;;;;;;10369079;28;20037;-56
2022/11/06 10:29:44;;;;;;;5.28;1.90;;;;;;;;;;10367947;28;20103;-55
2022/11/06 10:34:47;;;;;;;1.40;1.30;;;;;;;;;;10368418;28;20417;-54
2022/11/06 10:39:48;;;;;;;2.30;1.70;;;;;;;;;;10367613;28;20473;-55
2022/11/06 10:44:58;;;;;;;3.38;1.67;;;;;;;;;;10368014;28;20024;-55
2022/11/06 10:50:03;;;;;;;1.90;1.70;;;;;;;;;;10367445;28;20048;-55
2022/11/06 10:55:09;;;;;;;1.75;1.50;;;;;;;;;;10367699;28;20394;-53
2022/11/06 11:00:10;;;;;;;1.67;1.58;;;;;;;;;;10367664;28;20030;-56
2022/11/06 11:05:15;;;;;;;2.10;1.13;;;;;;;;;;10367393;28;20105;-55
2022/11/06 11:10:21;;;;;;;2.10;1.10;;;;;;;;;;10364224;28;20045;-56
2022/11/06 11:15:22;;;;;;;8.13;1.45;;;;;;;;;;10366521;28;20443;-56
2022/11/06 11:20:31;;;;;;;1.65;1.40;;;;;;;;;;10366752;28;20022;-54
2022/11/06 11:25:31;;;;;;;1.33;1.23;;;;;;;;;;10366630;28;20097;-55
2022/11/06 11:30:31;;;;;;;2.58;1.30;;;;;;;;;;10360434;28;20065;-56
2022/11/06 11:35:34;;;;;;;1.20;1.10;;;;;;;;;;10366160;28;20026;-56
2022/11/06 11:40:36;;;;;;;1.75;1.35;;;;;;;;;;10365816;28;20029;-56
2022/11/06 11:45:36;;;;;;;1.20;1.10;;;;;;;;;;10366167;28;20024;-56
2022/11/06 11:50:37;;;;;;;3.38;1.30;;;;;;;;;;10356160;28;20026;-56
2022/11/06 11:55:43;;;;;;;1.33;1.23;;;;;;;;;;10365382;28;20022;-56
2022/11/06 12:00:52;;;;;;;1.33;1.23;;;;;;;;;;10364787;28;20046;-55
2022/11/06 12:05:52;;;;;;;;;;;;;;;;;;10366596;28;20173;-56
2022/11/06 12:10:59;;;;;;;1.20;1.10;;;;;;;;;;10360659;28;20080;-56
2022/11/06 12:16:02;;;;;;;1.50;1.38;;;;;;;;;;10366074;28;20445;-56
2022/11/06 12:21:05;;;;;;;2.25;1.23;;;;;;;;;;10364799;28;20048;-55
2022/11/06 12:26:25;;;;;;;1.40;1.30;;;;;;;;;;10365241;28;20034;-55
2022/11/06 12:31:45;;;;;;;1.20;1.10;;;;;;;;;;10365150;28;20065;-55
2022/11/06 12:36:57;;;;;;;1.27;1.17;;;;;;;;;;10362397;28;20050;-55
2022/11/06 12:42:00;;;;;;;1.45;1.35;;;;;;;;;;10365931;28;20491;-56
2022/11/06 12:47:11;;;;;;;2.35;1.30;;;;;;;;;;10371841;28;20037;-55
2022/11/06 12:52:30;;;;;;;2.17;1.30;;;;;;;;;;10372451;28;20036;-53
2022/11/06 12:57:39;;;;;;;1.00;1.00;;;;;;;;;;10371546;28;20034;-54
2022/11/06 13:02:58;;;;;;;1.35;1.25;;;;;;;;;;10371416;28;20026;-55
2022/11/06 13:08:17;;;;;;;1.30;1.20;;;;;;;;;;10365886;28;20033;-55
2022/11/06 13:13:17;;;;;;;;;;;;;;;;;;10371714;28;20030;-54
2022/11/06 13:18:22;;;;;;;1.30;1.17;;;;;;;;;;10370809;28;19925;-54
2022/11/06 13:23:25;;;;;;;3.42;1.83;;;;;;;;;;10370976;28;20124;-56
2022/11/06 13:28:34;;;;;;;1.23;1.13;;;;;;;;;;10370864;28;20057;-56
2022/11/06 13:33:41;;;;;;;1.63;1.10;;;;;;;;;;10370761;28;20105;-56
2022/11/06 13:38:53;;;;;;;2.65;1.50;;;;;;;;;;10370121;28;20048;-54
2022/11/06 13:44:04;;;;;;;1.13;1.10;;;;;;;;;;10370543;28;20018;-56
2022/11/06 13:49:13;;;;;;;1.83;1.30;;;;;;;;;;10369495;28;20034;-55
2022/11/06 13:54:13;;;;;;;;;;;;;;;;;;10369139;28;20607;-57
2022/11/06 13:59:19;;;;;;;1.15;1.05;;;;;;;;;;10368580;28;20129;-56
2022/11/06 14:04:39;;;;;;;0.90;0.90;;;;;;;;;;10368710;28;20118;-54
2022/11/06 14:09:41;;;;;;;1.30;1.20;;;;;;;;;;10364841;28;20434;-56
2022/11/06 14:14:41;;;;;;;1.20;1.10;;;;;;;;;;10368748;28;20042;-56
2022/11/06 14:19:47;;;;;;;1.00;1.00;;;;;;;;;;10367562;28;20018;-55
2022/11/06 14:24:48;;;;;;;1.60;1.20;;;;;;;;;;10368048;28;20026;-55
2022/11/06 14:29:55;;;;;;;1.20;1.10;;;;;;;;;;10367712;28;20058;-55
2022/11/06 14:34:55;;;;;;;1.30;1.20;;;;;;;;;;10368292;28;20038;-55
2022/11/06 14:39:55;;;;;;;2.90;1.00;;;;;;;;;;10367822;28;20052;-55
2022/11/06 14:45:01;;;;;;;1.27;1.17;;;;;;;;;;10368145;28;20034;-55
2022/11/06 14:50:27;;;;;;;1.02;1.02;;;;;;;;;;10367276;28;20408;-56
2022/11/06 14:55:41;;;;;;;1.13;1.00;;;;;;;;;;10363748;28;20042;-56
2022/11/06 15:00:43;;;;;;;1.42;1.30;;;;;;;;;;10367026;28;20021;-56
2022/11/06 15:05:44;;;;;;;1.40;1.30;;;;;;;;;;10358278;28;20030;-55
2022/11/06 15:10:44;;;;;;;1.40;1.30;;;;;;;;;;10366213;28;20473;-56
2022/11/06 15:15:46;;;;;;;1.00;1.00;;;;;;;;;;10367665;28;20044;-54
2022/11/06 15:20:54;;;;;;;1.10;1.10;;;;;;;;;;10367231;28;20034;-55
2022/11/06 15:26:03;;;;;;;2.03;1.13;;;;;;;;;;10366228;28;20104;-54
2022/11/06 15:31:05;;;;;;;1.13;1.02;;;;;;;;;;10363373;28;20456;-56
2022/11/06 15:36:09;;;;;;;1.52;1.13;;;;;;;;;;10362356;28;20034;-56
2022/11/06 15:41:14;;;;;;;0.90;0.90;;;;;;;;;;10365920;28;20029;-55
2022/11/06 15:46:17;;;;;;;1.17;1.00;;;;;;;;;;10365721;28;20030;-55
2022/11/06 15:51:21;;;;;;;1.23;1.13;;;;;;;;;;10365094;28;20036;-57
2022/11/06 15:56:24;;;;;;;0.98;0.98;;;;;;;;;;10366427;28;20113;-55
2022/11/06 16:01:30;;;;;;;1.48;1.05;;;;;;;;;;10365135;28;20034;-55
2022/11/06 16:06:31;;;;;;;1.17;1.10;;;;;;;;;;10364466;28;20019;-56
2022/11/06 16:11:32;;;;;;;0.90;0.90;;;;;;;;;;10364094;28;20474;-55
2022/11/06 16:16:37;;;;;;;1.75;0.90;;;;;;;;;;10365123;28;20386;-55
2022/11/06 16:21:37;;;;;;;1.20;1.10;;;;;;;;;;10373147;28;20036;-54
2022/11/06 16:26:41;;;;;;;0.80;0.80;;;;;;;;;;10372804;28;20366;-55
2022/11/06 16:31:42;;;;;;;1.45;1.10;;;;;;;;;;10372499;28;20145;-55
2022/11/06 16:36:57;;;;;;;1.23;1.00;;;;;;;;;;10372120;28;20109;-55
2022/11/06 16:41:57;;;;;;;1.33;1.20;;;;;;;;;;10372809;28;20090;-55
2022/11/06 16:47:03;;;;;;;0.90;0.90;;;;;;;;;;10372338;28;20064;-55
2022/11/06 16:52:16;;;;;;;1.13;1.05;;;;;;;;;;10371833;28;20034;-55
2022/11/06 16:57:18;;;;;;;0.80;0.80;;;;;;;;;;10372262;28;20490;-54
2022/11/06 17:02:20;;;;;;;0.90;0.90;;;;;;;;;;10371482;28;20028;-56
2022/11/06 17:07:21;;;;;;;1.20;1.10;;;;;;;;;;10365814;28;20273;-55
2022/11/06 17:12:21;;;;;;;1.25;1.10;;;;;;;;;;10370650;28;20173;-54
2022/11/06 17:17:23;;;;;;;0.95;0.93;;;;;;;;;;10370211;28;20030;-55
2022/11/06 17:22:24;;;;;;;1.30;1.20;;;;;;;;;;10369757;28;20551;-57
2022/11/06 17:27:24;;;;;;;1.55;1.23;;;;;;;;;;10375262;28;20029;-56
2022/11/06 17:32:25;;;;;;;3.30;1.15;;;;;;;;;;10364445;28;20072;-53
2022/11/06 17:37:25;;;;;;;1.45;1.05;;;;;;;;;;10372614;28;20252;-57
2022/11/06 17:42:25;;;;;;;1.30;1.20;;;;;;;;;;10370972;28;20389;-55
2022/11/06 17:47:25;;;;;;;1.20;1.10;;;;;;;;;;10366034;28;20064;-55
2022/11/06 17:52:26;;;;;;;15.07;1.93;;;;;;;;;;10370201;28;20091;-55
2022/11/06 17:57:26;;;;;;;6.70;1.80;;;;;;;;;;10369901;28;20784;-53
2022/11/06 18:02:27;;;;;;;5.95;1.90;;;;;;;;;;10368235;28;20034;-56
2022/11/06 18:07:28;;;;;;;8.27;2.05;;;;;;;;;;10362829;28;20097;-54
2022/11/06 18:12:28;;;;;;;13.30;2.10;;;;;;;;;;10365025;28;20050;-56
2022/11/06 18:17:28;;;;;;;10.20;2.73;;;;;;;;;;10361224;28;20054;-56
2022/11/06 18:22:28;;;;;;;4.03;2.40;;;;;;;;;;10366038;28;20026;-55
2022/11/06 18:27:29;;;;;;;6.63;2.57;;;;;;;;;;10361587;28;20032;-55
2022/11/06 18:32:29;;;;;;;15.93;2.78;;;;;;;;;;10355290;28;20476;-53
2022/11/06 18:37:29;;;;;;;7.63;2.83;;;;;;;;;;10361143;28;20033;-59
2022/11/06 18:42:30;;;;;;;4.15;2.28;;;;;;;;;;10360206;28;20030;-59
2022/11/06 18:47:30;;;;;;;4.70;2.50;;;;;;;;;;10356997;28;20034;-61
2022/11/06 18:52:30;;;;;;;4.13;2.63;;;;;;;;;;10352390;28;20120;-55
2022/11/06 18:57:31;;;;;;;8.48;3.03;;;;;;;;;;10366174;28;20022;-59
2022/11/06 19:02:31;;;;;;;8.13;3.50;;;;;;;;;;10362952;28;20089;-59
2022/11/06 19:07:31;;;;;;;19.58;4.05;;;;;;;;;;10360363;28;20469;-62
2022/11/06 19:12:32;;;;;;;24.27;4.38;;;;;;;;;;10365061;28;20120;-65
2022/11/06 19:17:32;;;;;;;15.07;3.60;;;;;;;;;;10365072;28;20030;-65
2022/11/06 19:22:32;;;;;;;18.47;5.03;;;;;;;;;;10365655;28;20036;-65
2022/11/06 19:27:33;;;;;;;16.30;4.13;;;;;;;;;;10366486;28;20054;-66
2022/11/06 19:32:33;;;;;;;23.17;6.00;;;;;;;;;;10359021;28;20494;-66
2022/11/06 19:37:34;;;;;;;16.15;4.03;;;;;;;;;;10364933;28;20030;-64
2022/11/06 19:42:35;;;;;;;12.23;4.10;;;;;;;;;;10364551;28;20034;-65
2022/11/06 19:47:36;;;;;;;6.13;3.53;;;;;;;;;;10363261;28;20025;-64
2022/11/06 19:52:36;;;;;;;6.22;3.80;;;;;;;;;;10361470;28;20292;-65
2022/11/06 19:57:36;;;;;;;10.25;3.72;;;;;;;;;;10363452;28;20283;-64
2022/11/06 20:02:37;;;;;;;13.53;3.77;;;;;;;;;;10357514;28;20034;-63
2022/11/06 20:07:37;;;;;;;11.63;4.07;;;;;;;;;;10353473;28;20026;-65
2022/11/06 20:12:37;;;;;;;9.27;3.70;;;;;;;;;;10363878;28;20529;-65
2022/11/06 20:17:38;;;;;;;8.48;3.55;;;;;;;;;;10361357;28;20026;-62
2022/11/06 20:22:38;;;;;;;6.53;3.63;;;;;;;;;;10363721;28;20192;-64
2022/11/06 20:27:38;;;;;;;8.13;3.72;;;;;;;;;;10364550;28;20116;-62
2022/11/06 20:32:39;;;;;;;7.07;4.10;;;;;;;;;;10364811;28;20108;-63
2022/11/06 20:37:39;;;;;;;8.87;4.13;;;;;;;;;;10358901;28;20042;-64
2022/11/06 20:42:39;;;;;;;13.85;4.43;;;;;;;;;;10364128;28;20042;-63
2022/11/06 20:47:39;;;;;;;11.00;4.00;;;;;;;;;;10359481;28;20041;-63
2022/11/06 20:52:40;;;;;;;12.32;4.88;;;;;;;;;;10353020;28;20479;-65
2022/11/06 20:57:40;;;;;;;8.00;3.87;;;;;;;;;;10358715;28;20025;-65
2022/11/06 21:02:41;;;;;;;20.00;3.95;;;;;;;;;;10358935;28;20470;-65
2022/11/06 21:07:41;;;;;;;23.35;4.53;;;;;;;;;;10367458;28;20026;-65
2022/11/06 21:12:41;;;;;;;17.77;4.82;;;;;;;;;;10367555;28;20091;-65
2022/11/06 21:17:42;;;;;;;20.00;4.55;;;;;;;;;;10369106;28;20064;-54
2022/11/06 21:22:42;;;;;;;16.92;4.40;;;;;;;;;;10369397;28;20030;-66
2022/11/06 21:27:43;;;;;;;13.03;4.23;;;;;;;;;;10367886;28;20037;-65
2022/11/06 21:32:43;;;;;;;16.95;4.50;;;;;;;;;;10364184;28;20046;-66
2022/11/06 21:37:43;;;;;;;8.63;4.17;;;;;;;;;;10355201;28;20034;-60
2022/11/06 21:42:44;;;;;;;14.48;4.72;;;;;;;;;;10368014;28;20029;-56
2022/11/06 21:47:44;;;;;;;10.13;4.70;;;;;;;;;;10368137;28;20026;-64
2022/11/06 21:58:04;;;;;;;8.60;4.40;;;;;;;;;;10370976;28;20116;-61
2022/11/06 22:03:04;;;;;;;11.60;4.28;;;;;;;;;;10368850;28;20156;-60
2022/11/06 22:08:05;;;;;;;8.98;4.53;;;;;;;;;;10367230;28;20033;-67
2022/11/06 22:13:05;;;;;;;11.77;5.32;;;;;;;;;;10369008;28;20113;-55
2022/11/06 22:18:05;;;;;;;11.73;5.27;;;;;;;;;;10356425;28;20560;-63
2022/11/06 22:23:06;;;;;;;8.10;4.53;;;;;;;;;;10367672;28;20030;-50
2022/11/06 22:28:06;;;;;;;10.50;5.27;;;;;;;;;;10368780;28;20139;-55
2022/11/06 22:33:07;;;;;;;7.90;4.15;;;;;;;;;;10368497;28;20058;-58
2022/11/06 22:38:09;;;;;;;10.43;4.72;;;;;;;;;;10368648;28;20066;-59
2022/11/06 22:43:10;;;;;;;10.70;4.85;;;;;;;;;;10355051;28;20124;-60
2022/11/06 22:48:10;;;;;;;11.40;5.57;;;;;;;;;;10367636;28;20115;-65
2022/11/06 22:53:10;;;;;;;8.88;4.95;;;;;;;;;;10367459;28;20435;-66
2022/11/06 22:58:10;;;;;;;8.77;4.78;;;;;;;;;;10351882;28;20438;-60
2022/11/06 23:03:11;;;;;;;6.57;3.97;;;;;;;;;;10367298;28;20045;-58
2022/11/06 23:08:11;;;;;;;10.63;5.00;;;;;;;;;;10357971;28;20041;-67
2022/11/06 23:13:11;;;;;;;8.17;4.80;;;;;;;;;;10365082;28;20096;-58
2022/11/06 23:18:12;;;;;;;12.18;4.82;;;;;;;;;;10359694;28;20475;-61
2022/11/06 23:23:12;;;;;;;7.80;4.60;;;;;;;;;;10364629;28;20069;-55
2022/11/06 23:28:12;;;;;;;11.85;5.28;;;;;;;;;;10359072;28;20026;-54
2022/11/06 23:33:12;;;;;;;23.33;5.30;;;;;;;;;;10353045;28;20054;-50
2022/11/06 23:38:13;;;;;;;9.85;4.32;;;;;;;;;;10365469;28;20026;-53
2022/11/06 23:43:13;;;;;;;13.32;4.47;;;;;;;;;;10364247;28;20404;-54
2022/11/06 23:48:14;;;;;;;12.33;4.90;;;;;;;;;;10366159;28;20478;-55
2022/11/06 23:53:15;;;;;;;7.97;4.70;;;;;;;;;;10364224;28;20483;-57
2022/11/06 23:58:15;;;;;;;9.07;4.20;;;;;;;;;;10363376;28;20026;-55
